sensor_id;sensor_type;location;lat;lon;timestamp;P1;durP1;ratioP1;P2;durP2;ratioP2
18623;SDS011;9441;51.420;7.036;2023-02-15T00:00:07;39.27;;;18.70;;
18623;SDS011;9441;51.420;7.036;2023-02-15T00:01:11;37.50;;;16.43;;
18623;SDS011;9441;51.420;7.036;2023-02-15T00:02:12;36.43;;;16.97;;
18623;SDS011;9441;51.420;7.036;2023-02-15T00:03:15;39.03;;;16.83;;
18623;SDS011;9441;51.420;7.036;2023-02-15T00:04:17;34.97;;;16.50;;
18623;SDS011;9441;51.420;7.036;2023-02-15T00:05:20;42.73;;;17.30;;
18623;SDS011;9441;51.420;7.036;2023-02-15T00:06:21;39.83;;;16.80;;
18623;SDS011;9441;51.420;7.036;2023-02-15T00:07:24;37.87;;;16.47;;
18623;SDS011;9441;51.420;7.036;2023-02-15T00:08:25;39.50;;;17.17;;
18623;SDS011;9441;51.420;7.036;2023-02-15T00:09:27;37.20;;;16.63;;
18623;SDS011;9441;51.420;7.036;2023-02-15T00:10:30;37.77;;;18.03;;
18623;SDS011;9441;51.420;7.036;2023-02-15T00:11:32;38.90;;;17.27;;
18623;SDS011;9441;51.420;7.036;2023-02-15T00:12:39;38.53;;;18.07;;
18623;SDS011;9441;51.420;7.036;2023-02-15T00:13:42;39.87;;;16.73;;
18623;SDS011;9441;51.420;7.036;2023-02-15T00:14:43;41.03;;;17.80;;
18623;SDS011;9441;51.420;7.036;2023-02-15T00:15:46;43.77;;;19.13;;
18623;SDS011;9441;51.420;7.036;2023-02-15T00:16:48;40.57;;;17.67;;
18623;SDS011;9441;51.420;7.036;2023-02-15T00:17:50;41.07;;;17.80;;
18623;SDS011;9441;51.420;7.036;2023-02-15T00:18:51;40.93;;;18.27;;
18623;SDS011;9441;51.420;7.036;2023-02-15T00:19:54;43.43;;;17.43;;
18623;SDS011;9441;51.420;7.036;2023-02-15T00:20:55;37.93;;;17.47;;
18623;SDS011;9441;51.420;7.036;2023-02-15T00:21:58;36.17;;;16.73;;
18623;SDS011;9441;51.420;7.036;2023-02-15T00:23:00;39.80;;;18.13;;
18623;SDS011;9441;51.420;7.036;2023-02-15T00:24:02;39.03;;;16.93;;
18623;SDS011;9441;51.420;7.036;2023-02-15T00:25:05;40.93;;;18.50;;
18623;SDS011;9441;51.420;7.036;2023-02-15T00:26:09;42.07;;;17.53;;
18623;SDS011;9441;51.420;7.036;2023-02-15T00:27:13;40.63;;;18.67;;
18623;SDS011;9441;51.420;7.036;2023-02-15T00:28:15;39.97;;;18.47;;
18623;SDS011;9441;51.420;7.036;2023-02-15T00:29:17;41.63;;;17.27;;
18623;SDS011;9441;51.420;7.036;2023-02-15T00:30:20;39.70;;;18.47;;
18623;SDS011;9441;51.420;7.036;2023-02-15T00:31:21;34.60;;;17.27;;
18623;SDS011;9441;51.420;7.036;2023-02-15T00:32:24;42.17;;;18.07;;
18623;SDS011;9441;51.420;7.036;2023-02-15T00:33:25;41.10;;;17.40;;
18623;SDS011;9441;51.420;7.036;2023-02-15T00:34:27;42.23;;;18.40;;
18623;SDS011;9441;51.420;7.036;2023-02-15T00:35:30;49.00;;;19.87;;
18623;SDS011;9441;51.420;7.036;2023-02-15T00:36:34;47.73;;;19.33;;
18623;SDS011;9441;51.420;7.036;2023-02-15T00:37:35;50.70;;;20.10;;
18623;SDS011;9441;51.420;7.036;2023-02-15T00:38:38;42.17;;;18.33;;
18623;SDS011;9441;51.420;7.036;2023-02-15T00:39:39;40.17;;;18.87;;
18623;SDS011;9441;51.420;7.036;2023-02-15T00:40:42;49.27;;;19.67;;
18623;SDS011;9441;51.420;7.036;2023-02-15T00:41:44;49.93;;;20.63;;
18623;SDS011;9441;51.420;7.036;2023-02-15T00:42:47;48.47;;;20.27;;
18623;SDS011;9441;51.420;7.036;2023-02-15T00:43:49;50.93;;;19.80;;
18623;SDS011;9441;51.420;7.036;2023-02-15T00:44:51;44.97;;;19.47;;
18623;SDS011;9441;51.420;7.036;2023-02-15T00:45:54;45.00;;;19.57;;
18623;SDS011;9441;51.420;7.036;2023-02-15T00:46:57;41.93;;;18.97;;
18623;SDS011;9441;51.420;7.036;2023-02-15T00:47:58;43.60;;;19.10;;
18623;SDS011;9441;51.420;7.036;2023-02-15T00:49:01;46.53;;;20.27;;
18623;SDS011;9441;51.420;7.036;2023-02-15T00:50:02;48.00;;;19.93;;
18623;SDS011;9441;51.420;7.036;2023-02-15T00:51:05;50.47;;;20.20;;
18623;SDS011;9441;51.420;7.036;2023-02-15T00:52:07;43.53;;;19.17;;
18623;SDS011;9441;51.420;7.036;2023-02-15T00:53:09;51.10;;;20.07;;
18623;SDS011;9441;51.420;7.036;2023-02-15T00:54:11;49.03;;;19.83;;
18623;SDS011;9441;51.420;7.036;2023-02-15T00:55:13;42.73;;;18.27;;
18623;SDS011;9441;51.420;7.036;2023-02-15T00:56:14;49.23;;;19.90;;
18623;SDS011;9441;51.420;7.036;2023-02-15T00:57:18;48.10;;;18.40;;
18623;SDS011;9441;51.420;7.036;2023-02-15T00:58:19;48.03;;;19.47;;
18623;SDS011;9441;51.420;7.036;2023-02-15T00:59:22;44.33;;;18.70;;
18623;SDS011;9441;51.420;7.036;2023-02-15T01:00:23;43.50;;;17.80;;
18623;SDS011;9441;51.420;7.036;2023-02-15T01:01:26;44.60;;;18.77;;
18623;SDS011;9441;51.420;7.036;2023-02-15T01:02:27;40.90;;;18.50;;
18623;SDS011;9441;51.420;7.036;2023-02-15T01:03:29;44.97;;;18.87;;
18623;SDS011;9441;51.420;7.036;2023-02-15T01:04:31;44.43;;;19.37;;
18623;SDS011;9441;51.420;7.036;2023-02-15T01:05:33;45.57;;;18.97;;
18623;SDS011;9441;51.420;7.036;2023-02-15T01:06:34;45.40;;;19.07;;
18623;SDS011;9441;51.420;7.036;2023-02-15T01:07:37;39.47;;;17.93;;
18623;SDS011;9441;51.420;7.036;2023-02-15T01:08:38;47.07;;;19.63;;
18623;SDS011;9441;51.420;7.036;2023-02-15T01:09:42;43.10;;;18.53;;
18623;SDS011;9441;51.420;7.036;2023-02-15T01:10:43;40.30;;;17.77;;
18623;SDS011;9441;51.420;7.036;2023-02-15T01:11:47;40.47;;;17.87;;
18623;SDS011;9441;51.420;7.036;2023-02-15T01:12:50;41.00;;;18.30;;
18623;SDS011;9441;51.420;7.036;2023-02-15T01:13:54;41.53;;;18.60;;
18623;SDS011;9441;51.420;7.036;2023-02-15T01:14:55;46.13;;;18.87;;
18623;SDS011;9441;51.420;7.036;2023-02-15T01:15:59;47.90;;;19.10;;
18623;SDS011;9441;51.420;7.036;2023-02-15T01:17:00;43.90;;;19.33;;
18623;SDS011;9441;51.420;7.036;2023-02-15T01:18:03;42.53;;;18.70;;
18623;SDS011;9441;51.420;7.036;2023-02-15T01:19:05;45.03;;;20.07;;
18623;SDS011;9441;51.420;7.036;2023-02-15T01:20:07;46.27;;;19.03;;
18623;SDS011;9441;51.420;7.036;2023-02-15T01:21:10;39.10;;;18.27;;
18623;SDS011;9441;51.420;7.036;2023-02-15T01:22:14;40.47;;;18.53;;
18623;SDS011;9441;51.420;7.036;2023-02-15T01:23:15;41.03;;;17.33;;
18623;SDS011;9441;51.420;7.036;2023-02-15T01:24:20;40.80;;;18.37;;
18623;SDS011;9441;51.420;7.036;2023-02-15T01:25:22;41.97;;;18.57;;
18623;SDS011;9441;51.420;7.036;2023-02-15T01:26:24;40.90;;;18.43;;
18623;SDS011;9441;51.420;7.036;2023-02-15T01:27:26;44.47;;;19.13;;
18623;SDS011;9441;51.420;7.036;2023-02-15T01:28:32;43.70;;;18.97;;
18623;SDS011;9441;51.420;7.036;2023-02-15T01:29:33;49.03;;;19.93;;
18623;SDS011;9441;51.420;7.036;2023-02-15T01:30:35;43.10;;;18.47;;
18623;SDS011;9441;51.420;7.036;2023-02-15T01:31:37;48.53;;;20.23;;
18623;SDS011;9441;51.420;7.036;2023-02-15T01:32:40;45.97;;;19.27;;
18623;SDS011;9441;51.420;7.036;2023-02-15T01:33:42;43.47;;;19.73;;
18623;SDS011;9441;51.420;7.036;2023-02-15T01:34:44;44.33;;;19.90;;
18623;SDS011;9441;51.420;7.036;2023-02-15T01:35:47;46.73;;;20.17;;
18623;SDS011;9441;51.420;7.036;2023-02-15T01:36:50;50.20;;;20.50;;
18623;SDS011;9441;51.420;7.036;2023-02-15T01:37:51;47.87;;;19.37;;
18623;SDS011;9441;51.420;7.036;2023-02-15T01:38:54;47.33;;;20.07;;
18623;SDS011;9441;51.420;7.036;2023-02-15T01:39:55;57.23;;;22.80;;
18623;SDS011;9441;51.420;7.036;2023-02-15T01:40:57;62.17;;;22.87;;
18623;SDS011;9441;51.420;7.036;2023-02-15T01:42:14;55.40;;;20.83;;
18623;SDS011;9441;51.420;7.036;2023-02-15T01:43:27;54.63;;;21.63;;
18623;SDS011;9441;51.420;7.036;2023-02-15T01:44:48;52.73;;;21.70;;
18623;SDS011;9441;51.420;7.036;2023-02-15T01:45:52;46.73;;;19.47;;
18623;SDS011;9441;51.420;7.036;2023-02-15T01:46:53;47.20;;;20.80;;
18623;SDS011;9441;51.420;7.036;2023-02-15T01:47:58;46.43;;;19.70;;
18623;SDS011;9441;51.420;7.036;2023-02-15T01:49:01;45.47;;;19.83;;
18623;SDS011;9441;51.420;7.036;2023-02-15T01:50:07;50.87;;;20.33;;
18623;SDS011;9441;51.420;7.036;2023-02-15T01:51:09;47.20;;;20.90;;
18623;SDS011;9441;51.420;7.036;2023-02-15T01:52:12;52.30;;;20.67;;
18623;SDS011;9441;51.420;7.036;2023-02-15T01:53:15;43.63;;;20.13;;
18623;SDS011;9441;51.420;7.036;2023-02-15T01:54:29;45.20;;;19.57;;
18623;SDS011;9441;51.420;7.036;2023-02-15T01:55:33;42.27;;;19.20;;
18623;SDS011;9441;51.420;7.036;2023-02-15T01:56:37;46.77;;;20.13;;
18623;SDS011;9441;51.420;7.036;2023-02-15T01:57:39;47.27;;;20.13;;
18623;SDS011;9441;51.420;7.036;2023-02-15T01:58:41;54.87;;;21.90;;
18623;SDS011;9441;51.420;7.036;2023-02-15T01:59:44;48.87;;;21.17;;
18623;SDS011;9441;51.420;7.036;2023-02-15T02:00:50;54.37;;;21.43;;
18623;SDS011;9441;51.420;7.036;2023-02-15T02:01:52;51.17;;;21.77;;
18623;SDS011;9441;51.420;7.036;2023-02-15T02:03:11;51.83;;;22.33;;
18623;SDS011;9441;51.420;7.036;2023-02-15T02:04:13;51.87;;;21.50;;
18623;SDS011;9441;51.420;7.036;2023-02-15T02:05:17;43.40;;;18.80;;
18623;SDS011;9441;51.420;7.036;2023-02-15T02:06:18;47.80;;;19.80;;
18623;SDS011;9441;51.420;7.036;2023-02-15T02:07:22;49.40;;;19.97;;
18623;SDS011;9441;51.420;7.036;2023-02-15T02:08:24;51.13;;;22.03;;
18623;SDS011;9441;51.420;7.036;2023-02-15T02:09:27;43.43;;;19.67;;
18623;SDS011;9441;51.420;7.036;2023-02-15T02:10:29;44.97;;;20.27;;
18623;SDS011;9441;51.420;7.036;2023-02-15T02:11:32;47.20;;;20.47;;
18623;SDS011;9441;51.420;7.036;2023-02-15T02:12:34;49.53;;;21.33;;
18623;SDS011;9441;51.420;7.036;2023-02-15T02:13:37;53.00;;;21.63;;
18623;SDS011;9441;51.420;7.036;2023-02-15T02:14:39;51.97;;;21.63;;
18623;SDS011;9441;51.420;7.036;2023-02-15T02:15:43;47.50;;;20.60;;
18623;SDS011;9441;51.420;7.036;2023-02-15T02:16:51;49.27;;;21.03;;
18623;SDS011;9441;51.420;7.036;2023-02-15T02:18:02;48.23;;;20.63;;
18623;SDS011;9441;51.420;7.036;2023-02-15T02:19:10;46.47;;;19.37;;
18623;SDS011;9441;51.420;7.036;2023-02-15T02:20:21;55.17;;;21.33;;
18623;SDS011;9441;51.420;7.036;2023-02-15T02:21:47;48.57;;;20.43;;
18623;SDS011;9441;51.420;7.036;2023-02-15T02:23:07;49.83;;;20.53;;
18623;SDS011;9441;51.420;7.036;2023-02-15T02:24:17;49.70;;;20.13;;
18623;SDS011;9441;51.420;7.036;2023-02-15T02:25:38;47.57;;;19.67;;
18623;SDS011;9441;51.420;7.036;2023-02-15T02:26:51;47.33;;;20.00;;
18623;SDS011;9441;51.420;7.036;2023-02-15T02:27:59;47.80;;;19.93;;
18623;SDS011;9441;51.420;7.036;2023-02-15T02:29:11;46.07;;;19.93;;
18623;SDS011;9441;51.420;7.036;2023-02-15T02:31:31;46.90;;;20.20;;
18623;SDS011;9441;51.420;7.036;2023-02-15T02:32:48;48.63;;;20.47;;
18623;SDS011;9441;51.420;7.036;2023-02-15T02:33:57;46.60;;;20.13;;
18623;SDS011;9441;51.420;7.036;2023-02-15T02:35:04;50.57;;;21.63;;
18623;SDS011;9441;51.420;7.036;2023-02-15T02:36:15;49.57;;;20.40;;
18623;SDS011;9441;51.420;7.036;2023-02-15T02:37:19;53.00;;;21.50;;
18623;SDS011;9441;51.420;7.036;2023-02-15T02:38:24;47.63;;;21.33;;
18623;SDS011;9441;51.420;7.036;2023-02-15T02:39:30;48.47;;;20.30;;
18623;SDS011;9441;51.420;7.036;2023-02-15T02:40:41;48.13;;;20.87;;
18623;SDS011;9441;51.420;7.036;2023-02-15T02:41:48;47.27;;;20.03;;
18623;SDS011;9441;51.420;7.036;2023-02-15T02:42:54;52.33;;;20.93;;
18623;SDS011;9441;51.420;7.036;2023-02-15T02:44:01;44.37;;;19.27;;
18623;SDS011;9441;51.420;7.036;2023-02-15T02:45:05;47.57;;;20.47;;
18623;SDS011;9441;51.420;7.036;2023-02-15T02:46:08;51.60;;;21.07;;
18623;SDS011;9441;51.420;7.036;2023-02-15T02:47:15;47.50;;;21.10;;
18623;SDS011;9441;51.420;7.036;2023-02-15T02:48:20;50.93;;;20.73;;
18623;SDS011;9441;51.420;7.036;2023-02-15T02:49:30;45.33;;;20.57;;
18623;SDS011;9441;51.420;7.036;2023-02-15T02:50:31;53.40;;;22.23;;
18623;SDS011;9441;51.420;7.036;2023-02-15T02:51:34;47.37;;;20.43;;
18623;SDS011;9441;51.420;7.036;2023-02-15T02:52:36;50.37;;;20.80;;
18623;SDS011;9441;51.420;7.036;2023-02-15T02:53:39;53.27;;;21.97;;
18623;SDS011;9441;51.420;7.036;2023-02-15T02:54:41;49.27;;;20.70;;
18623;SDS011;9441;51.420;7.036;2023-02-15T02:55:44;45.87;;;21.53;;
18623;SDS011;9441;51.420;7.036;2023-02-15T02:56:47;50.00;;;21.37;;
18623;SDS011;9441;51.420;7.036;2023-02-15T02:57:52;49.07;;;21.47;;
18623;SDS011;9441;51.420;7.036;2023-02-15T02:58:55;50.27;;;21.57;;
18623;SDS011;9441;51.420;7.036;2023-02-15T02:59:58;48.63;;;21.50;;
18623;SDS011;9441;51.420;7.036;2023-02-15T03:01:01;48.37;;;22.03;;
18623;SDS011;9441;51.420;7.036;2023-02-15T03:02:07;47.67;;;21.07;;
18623;SDS011;9441;51.420;7.036;2023-02-15T03:03:13;51.20;;;22.23;;
18623;SDS011;9441;51.420;7.036;2023-02-15T03:04:19;47.60;;;21.50;;
18623;SDS011;9441;51.420;7.036;2023-02-15T03:05:24;53.97;;;22.03;;
18623;SDS011;9441;51.420;7.036;2023-02-15T03:06:30;54.40;;;22.13;;
18623;SDS011;9441;51.420;7.036;2023-02-15T03:07:36;51.23;;;21.97;;
18623;SDS011;9441;51.420;7.036;2023-02-15T03:08:40;53.47;;;22.90;;
18623;SDS011;9441;51.420;7.036;2023-02-15T03:09:43;47.40;;;20.67;;
18623;SDS011;9441;51.420;7.036;2023-02-15T03:10:48;43.73;;;20.03;;
18623;SDS011;9441;51.420;7.036;2023-02-15T03:11:53;45.50;;;20.90;;
18623;SDS011;9441;51.420;7.036;2023-02-15T03:12:55;54.70;;;22.60;;
18623;SDS011;9441;51.420;7.036;2023-02-15T03:13:59;53.43;;;21.93;;
18623;SDS011;9441;51.420;7.036;2023-02-15T03:15:01;49.80;;;20.93;;
18623;SDS011;9441;51.420;7.036;2023-02-15T03:16:05;54.27;;;22.87;;
18623;SDS011;9441;51.420;7.036;2023-02-15T03:17:26;55.63;;;22.73;;
18623;SDS011;9441;51.420;7.036;2023-02-15T03:18:30;54.70;;;22.43;;
18623;SDS011;9441;51.420;7.036;2023-02-15T03:19:34;57.47;;;23.43;;
18623;SDS011;9441;51.420;7.036;2023-02-15T03:20:39;54.33;;;22.73;;
18623;SDS011;9441;51.420;7.036;2023-02-15T03:21:42;60.37;;;23.73;;
18623;SDS011;9441;51.420;7.036;2023-02-15T03:22:50;60.07;;;23.37;;
18623;SDS011;9441;51.420;7.036;2023-02-15T03:23:52;57.27;;;23.10;;
18623;SDS011;9441;51.420;7.036;2023-02-15T03:24:56;54.00;;;21.60;;
18623;SDS011;9441;51.420;7.036;2023-02-15T03:26:00;55.10;;;23.07;;
18623;SDS011;9441;51.420;7.036;2023-02-15T03:27:07;50.70;;;22.17;;
18623;SDS011;9441;51.420;7.036;2023-02-15T03:28:11;50.70;;;21.30;;
18623;SDS011;9441;51.420;7.036;2023-02-15T03:29:15;50.43;;;22.23;;
18623;SDS011;9441;51.420;7.036;2023-02-15T03:30:19;49.10;;;21.87;;
18623;SDS011;9441;51.420;7.036;2023-02-15T03:31:23;46.60;;;20.77;;
18623;SDS011;9441;51.420;7.036;2023-02-15T03:32:28;51.00;;;23.07;;
18623;SDS011;9441;51.420;7.036;2023-02-15T03:33:31;51.73;;;22.13;;
18623;SDS011;9441;51.420;7.036;2023-02-15T03:34:35;50.40;;;21.83;;
18623;SDS011;9441;51.420;7.036;2023-02-15T03:35:39;47.40;;;20.50;;
18623;SDS011;9441;51.420;7.036;2023-02-15T03:36:45;50.10;;;21.90;;
18623;SDS011;9441;51.420;7.036;2023-02-15T03:37:48;47.93;;;21.57;;
18623;SDS011;9441;51.420;7.036;2023-02-15T03:38:53;51.30;;;21.67;;
18623;SDS011;9441;51.420;7.036;2023-02-15T03:39:59;51.47;;;21.33;;
18623;SDS011;9441;51.420;7.036;2023-02-15T03:41:24;55.43;;;21.77;;
18623;SDS011;9441;51.420;7.036;2023-02-15T03:42:29;50.77;;;21.80;;
18623;SDS011;9441;51.420;7.036;2023-02-15T03:43:33;55.27;;;22.60;;
18623;SDS011;9441;51.420;7.036;2023-02-15T03:44:39;51.30;;;21.73;;
18623;SDS011;9441;51.420;7.036;2023-02-15T03:45:44;50.43;;;22.13;;
18623;SDS011;9441;51.420;7.036;2023-02-15T03:46:56;53.83;;;22.50;;
18623;SDS011;9441;51.420;7.036;2023-02-15T03:48:00;55.20;;;22.50;;
18623;SDS011;9441;51.420;7.036;2023-02-15T03:49:03;60.00;;;22.67;;
18623;SDS011;9441;51.420;7.036;2023-02-15T03:50:08;59.37;;;23.67;;
18623;SDS011;9441;51.420;7.036;2023-02-15T03:51:27;48.10;;;21.50;;
18623;SDS011;9441;51.420;7.036;2023-02-15T03:52:38;45.60;;;20.23;;
18623;SDS011;9441;51.420;7.036;2023-02-15T03:53:39;49.50;;;21.57;;
18623;SDS011;9441;51.420;7.036;2023-02-15T03:54:42;55.70;;;22.43;;
18623;SDS011;9441;51.420;7.036;2023-02-15T03:55:45;49.63;;;20.70;;
18623;SDS011;9441;51.420;7.036;2023-02-15T03:56:48;50.23;;;21.43;;
18623;SDS011;9441;51.420;7.036;2023-02-15T03:58:10;50.90;;;21.87;;
18623;SDS011;9441;51.420;7.036;2023-02-15T03:59:29;50.23;;;21.70;;
18623;SDS011;9441;51.420;7.036;2023-02-15T04:00:52;50.03;;;20.70;;
18623;SDS011;9441;51.420;7.036;2023-02-15T04:02:15;59.30;;;21.57;;
18623;SDS011;9441;51.420;7.036;2023-02-15T04:03:22;49.27;;;21.33;;
18623;SDS011;9441;51.420;7.036;2023-02-15T04:04:30;50.00;;;21.50;;
18623;SDS011;9441;51.420;7.036;2023-02-15T04:05:34;51.33;;;21.97;;
18623;SDS011;9441;51.420;7.036;2023-02-15T04:06:36;50.03;;;21.03;;
18623;SDS011;9441;51.420;7.036;2023-02-15T04:07:38;49.83;;;22.33;;
18623;SDS011;9441;51.420;7.036;2023-02-15T04:08:40;49.57;;;21.83;;
18623;SDS011;9441;51.420;7.036;2023-02-15T04:10:00;56.97;;;22.83;;
18623;SDS011;9441;51.420;7.036;2023-02-15T04:11:19;49.43;;;21.93;;
18623;SDS011;9441;51.420;7.036;2023-02-15T04:12:22;55.63;;;21.93;;
18623;SDS011;9441;51.420;7.036;2023-02-15T04:13:29;51.80;;;22.53;;
18623;SDS011;9441;51.420;7.036;2023-02-15T04:14:30;53.83;;;22.40;;
18623;SDS011;9441;51.420;7.036;2023-02-15T04:15:50;51.00;;;21.60;;
18623;SDS011;9441;51.420;7.036;2023-02-15T04:17:05;48.83;;;22.40;;
18623;SDS011;9441;51.420;7.036;2023-02-15T04:18:07;52.80;;;23.13;;
18623;SDS011;9441;51.420;7.036;2023-02-15T04:19:09;53.90;;;22.93;;
18623;SDS011;9441;51.420;7.036;2023-02-15T04:20:29;54.67;;;22.47;;
18623;SDS011;9441;51.420;7.036;2023-02-15T04:21:50;51.87;;;22.83;;
18623;SDS011;9441;51.420;7.036;2023-02-15T04:23:10;54.97;;;22.93;;
18623;SDS011;9441;51.420;7.036;2023-02-15T04:24:29;52.40;;;22.50;;
18623;SDS011;9441;51.420;7.036;2023-02-15T04:25:49;54.13;;;22.80;;
18623;SDS011;9441;51.420;7.036;2023-02-15T04:26:51;55.77;;;24.10;;
18623;SDS011;9441;51.420;7.036;2023-02-15T04:27:54;60.27;;;23.20;;
18623;SDS011;9441;51.420;7.036;2023-02-15T04:28:57;54.77;;;23.33;;
18623;SDS011;9441;51.420;7.036;2023-02-15T04:29:58;60.40;;;23.33;;
18623;SDS011;9441;51.420;7.036;2023-02-15T04:30:59;51.17;;;21.60;;
18623;SDS011;9441;51.420;7.036;2023-02-15T04:32:01;56.67;;;22.60;;
18623;SDS011;9441;51.420;7.036;2023-02-15T04:33:03;50.23;;;22.20;;
18623;SDS011;9441;51.420;7.036;2023-02-15T04:34:05;56.93;;;22.20;;
18623;SDS011;9441;51.420;7.036;2023-02-15T04:35:07;52.07;;;22.37;;
18623;SDS011;9441;51.420;7.036;2023-02-15T04:36:10;50.80;;;21.63;;
18623;SDS011;9441;51.420;7.036;2023-02-15T04:37:12;50.97;;;22.97;;
18623;SDS011;9441;51.420;7.036;2023-02-15T04:38:14;51.20;;;22.53;;
18623;SDS011;9441;51.420;7.036;2023-02-15T04:39:17;52.83;;;22.20;;
18623;SDS011;9441;51.420;7.036;2023-02-15T04:40:19;52.23;;;23.13;;
18623;SDS011;9441;51.420;7.036;2023-02-15T04:41:21;51.87;;;22.60;;
18623;SDS011;9441;51.420;7.036;2023-02-15T04:42:23;52.17;;;22.73;;
18623;SDS011;9441;51.420;7.036;2023-02-15T04:43:25;56.20;;;22.33;;
18623;SDS011;9441;51.420;7.036;2023-02-15T04:44:26;58.70;;;24.20;;
18623;SDS011;9441;51.420;7.036;2023-02-15T04:45:29;53.37;;;23.50;;
18623;SDS011;9441;51.420;7.036;2023-02-15T04:46:30;53.40;;;22.97;;
18623;SDS011;9441;51.420;7.036;2023-02-15T04:47:32;53.73;;;22.80;;
18623;SDS011;9441;51.420;7.036;2023-02-15T04:48:34;51.10;;;22.23;;
18623;SDS011;9441;51.420;7.036;2023-02-15T04:49:36;53.70;;;23.27;;
18623;SDS011;9441;51.420;7.036;2023-02-15T04:50:37;53.27;;;23.00;;
18623;SDS011;9441;51.420;7.036;2023-02-15T04:51:39;52.83;;;23.07;;
18623;SDS011;9441;51.420;7.036;2023-02-15T04:52:42;55.13;;;23.97;;
18623;SDS011;9441;51.420;7.036;2023-02-15T04:53:45;58.43;;;25.37;;
18623;SDS011;9441;51.420;7.036;2023-02-15T04:54:46;57.37;;;24.27;;
18623;SDS011;9441;51.420;7.036;2023-02-15T04:55:48;52.73;;;23.40;;
18623;SDS011;9441;51.420;7.036;2023-02-15T04:56:50;54.23;;;22.83;;
18623;SDS011;9441;51.420;7.036;2023-02-15T04:57:52;51.77;;;23.40;;
18623;SDS011;9441;51.420;7.036;2023-02-15T04:58:53;55.00;;;23.20;;
18623;SDS011;9441;51.420;7.036;2023-02-15T04:59:55;49.23;;;23.13;;
18623;SDS011;9441;51.420;7.036;2023-02-15T05:00:59;53.80;;;22.63;;
18623;SDS011;9441;51.420;7.036;2023-02-15T05:02:01;52.97;;;23.10;;
18623;SDS011;9441;51.420;7.036;2023-02-15T05:03:03;53.30;;;23.93;;
18623;SDS011;9441;51.420;7.036;2023-02-15T05:04:05;55.47;;;23.03;;
18623;SDS011;9441;51.420;7.036;2023-02-15T05:05:07;51.43;;;23.17;;
18623;SDS011;9441;51.420;7.036;2023-02-15T05:06:13;54.23;;;24.27;;
18623;SDS011;9441;51.420;7.036;2023-02-15T05:07:14;57.90;;;23.40;;
18623;SDS011;9441;51.420;7.036;2023-02-15T05:08:18;53.80;;;24.23;;
18623;SDS011;9441;51.420;7.036;2023-02-15T05:09:19;58.83;;;24.33;;
18623;SDS011;9441;51.420;7.036;2023-02-15T05:10:21;53.23;;;22.23;;
18623;SDS011;9441;51.420;7.036;2023-02-15T05:11:24;50.90;;;23.03;;
18623;SDS011;9441;51.420;7.036;2023-02-15T05:12:25;53.37;;;23.63;;
18623;SDS011;9441;51.420;7.036;2023-02-15T05:13:27;51.73;;;22.37;;
18623;SDS011;9441;51.420;7.036;2023-02-15T05:14:29;55.67;;;24.20;;
18623;SDS011;9441;51.420;7.036;2023-02-15T05:15:31;55.23;;;23.30;;
18623;SDS011;9441;51.420;7.036;2023-02-15T05:16:32;57.30;;;23.50;;
18623;SDS011;9441;51.420;7.036;2023-02-15T05:17:35;54.57;;;24.10;;
18623;SDS011;9441;51.420;7.036;2023-02-15T05:18:37;54.67;;;24.03;;
18623;SDS011;9441;51.420;7.036;2023-02-15T05:19:38;63.43;;;24.17;;
18623;SDS011;9441;51.420;7.036;2023-02-15T05:20:41;52.17;;;22.70;;
18623;SDS011;9441;51.420;7.036;2023-02-15T05:21:42;54.90;;;23.97;;
18623;SDS011;9441;51.420;7.036;2023-02-15T05:22:44;51.73;;;23.17;;
18623;SDS011;9441;51.420;7.036;2023-02-15T05:23:47;60.03;;;24.00;;
18623;SDS011;9441;51.420;7.036;2023-02-15T05:24:49;56.80;;;23.90;;
18623;SDS011;9441;51.420;7.036;2023-02-15T05:26:09;56.37;;;24.23;;
18623;SDS011;9441;51.420;7.036;2023-02-15T05:27:30;57.57;;;23.10;;
18623;SDS011;9441;51.420;7.036;2023-02-15T05:28:49;57.90;;;24.27;;
18623;SDS011;9441;51.420;7.036;2023-02-15T05:29:52;60.93;;;24.37;;
18623;SDS011;9441;51.420;7.036;2023-02-15T05:30:58;58.27;;;24.60;;
18623;SDS011;9441;51.420;7.036;2023-02-15T05:32:02;57.97;;;24.33;;
18623;SDS011;9441;51.420;7.036;2023-02-15T05:33:04;54.90;;;23.77;;
18623;SDS011;9441;51.420;7.036;2023-02-15T05:34:06;55.47;;;22.57;;
18623;SDS011;9441;51.420;7.036;2023-02-15T05:35:11;53.67;;;23.30;;
18623;SDS011;9441;51.420;7.036;2023-02-15T05:36:15;55.87;;;23.63;;
18623;SDS011;9441;51.420;7.036;2023-02-15T05:37:16;52.63;;;23.33;;
18623;SDS011;9441;51.420;7.036;2023-02-15T05:38:19;58.10;;;24.43;;
18623;SDS011;9441;51.420;7.036;2023-02-15T05:39:23;59.10;;;24.70;;
18623;SDS011;9441;51.420;7.036;2023-02-15T05:40:24;54.13;;;24.47;;
18623;SDS011;9441;51.420;7.036;2023-02-15T05:41:27;53.77;;;24.00;;
18623;SDS011;9441;51.420;7.036;2023-02-15T05:42:28;55.70;;;23.33;;
18623;SDS011;9441;51.420;7.036;2023-02-15T05:43:30;54.40;;;23.97;;
18623;SDS011;9441;51.420;7.036;2023-02-15T05:44:32;58.63;;;23.23;;
18623;SDS011;9441;51.420;7.036;2023-02-15T05:45:35;58.50;;;24.93;;
18623;SDS011;9441;51.420;7.036;2023-02-15T05:46:36;56.43;;;23.87;;
18623;SDS011;9441;51.420;7.036;2023-02-15T05:47:38;60.67;;;23.80;;
18623;SDS011;9441;51.420;7.036;2023-02-15T05:48:40;58.70;;;24.50;;
18623;SDS011;9441;51.420;7.036;2023-02-15T05:49:42;52.93;;;22.53;;
18623;SDS011;9441;51.420;7.036;2023-02-15T05:50:44;60.77;;;24.73;;
18623;SDS011;9441;51.420;7.036;2023-02-15T05:51:46;59.33;;;24.47;;
18623;SDS011;9441;51.420;7.036;2023-02-15T05:52:48;58.50;;;24.77;;
18623;SDS011;9441;51.420;7.036;2023-02-15T05:53:50;60.03;;;24.20;;
18623;SDS011;9441;51.420;7.036;2023-02-15T05:54:53;58.60;;;24.10;;
18623;SDS011;9441;51.420;7.036;2023-02-15T05:55:55;59.67;;;25.80;;
18623;SDS011;9441;51.420;7.036;2023-02-15T05:56:59;52.77;;;23.50;;
18623;SDS011;9441;51.420;7.036;2023-02-15T05:58:01;55.47;;;23.40;;
18623;SDS011;9441;51.420;7.036;2023-02-15T05:59:02;59.00;;;24.30;;
18623;SDS011;9441;51.420;7.036;2023-02-15T06:00:05;59.03;;;23.97;;
18623;SDS011;9441;51.420;7.036;2023-02-15T06:01:13;53.73;;;23.70;;
18623;SDS011;9441;51.420;7.036;2023-02-15T06:02:15;55.83;;;23.63;;
18623;SDS011;9441;51.420;7.036;2023-02-15T06:03:17;55.90;;;24.47;;
18623;SDS011;9441;51.420;7.036;2023-02-15T06:04:19;57.57;;;23.83;;
18623;SDS011;9441;51.420;7.036;2023-02-15T06:05:20;58.53;;;24.70;;
18623;SDS011;9441;51.420;7.036;2023-02-15T06:06:23;58.27;;;25.07;;
18623;SDS011;9441;51.420;7.036;2023-02-15T06:07:24;59.70;;;25.20;;
18623;SDS011;9441;51.420;7.036;2023-02-15T06:08:26;64.57;;;26.93;;
18623;SDS011;9441;51.420;7.036;2023-02-15T06:09:29;58.27;;;24.83;;
18623;SDS011;9441;51.420;7.036;2023-02-15T06:10:32;58.33;;;24.70;;
18623;SDS011;9441;51.420;7.036;2023-02-15T06:11:34;61.43;;;25.80;;
18623;SDS011;9441;51.420;7.036;2023-02-15T06:12:35;60.43;;;26.17;;
18623;SDS011;9441;51.420;7.036;2023-02-15T06:13:38;56.00;;;24.83;;
18623;SDS011;9441;51.420;7.036;2023-02-15T06:14:39;52.30;;;24.03;;
18623;SDS011;9441;51.420;7.036;2023-02-15T06:15:42;56.13;;;22.90;;
18623;SDS011;9441;51.420;7.036;2023-02-15T06:16:43;60.20;;;24.63;;
18623;SDS011;9441;51.420;7.036;2023-02-15T06:17:45;62.93;;;25.23;;
18623;SDS011;9441;51.420;7.036;2023-02-15T06:18:47;55.57;;;24.63;;
18623;SDS011;9441;51.420;7.036;2023-02-15T06:19:49;57.67;;;23.70;;
18623;SDS011;9441;51.420;7.036;2023-02-15T06:20:50;58.37;;;24.10;;
18623;SDS011;9441;51.420;7.036;2023-02-15T06:21:53;56.80;;;23.90;;
18623;SDS011;9441;51.420;7.036;2023-02-15T06:22:54;54.87;;;24.47;;